sensor_id;sensor_type;location;lat;lon;timestamp;temperature;humidity
4411;DHT22;2218;51.408;7.208;2023-11-18T00:00:57;17.90;35.90
4411;DHT22;2218;51.408;7.208;2023-11-18T00:03:25;17.90;36.00
4411;DHT22;2218;51.408;7.208;2023-11-18T00:05:52;17.90;36.00
4411;DHT22;2218;51.408;7.208;2023-11-18T00:08:19;17.90;36.00
4411;DHT22;2218;51.408;7.208;2023-11-18T00:10:47;17.90;36.00
4411;DHT22;2218;51.408;7.208;2023-11-18T00:13:14;17.90;36.10
4411;DHT22;2218;51.408;7.208;2023-11-18T00:15:41;17.90;36.10
4411;DHT22;2218;51.408;7.208;2023-11-18T00:18:11;17.90;36.10
4411;DHT22;2218;51.408;7.208;2023-11-18T00:20:38;17.90;36.10
4411;DHT22;2218;51.408;7.208;2023-11-18T00:23:05;17.90;36.10
4411;DHT22;2218;51.408;7.208;2023-11-18T00:25:32;17.90;36.10
4411;DHT22;2218;51.408;7.208;2023-11-18T00:28:02;17.90;36.10
4411;DHT22;2218;51.408;7.208;2023-11-18T00:30:29;17.80;36.10
4411;DHT22;2218;51.408;7.208;2023-11-18T00:32:56;17.80;36.10
4411;DHT22;2218;51.408;7.208;2023-11-18T00:35:24;17.80;36.10
4411;DHT22;2218;51.408;7.208;2023-11-18T00:37:51;17.90;36.20
4411;DHT22;2218;51.408;7.208;2023-11-18T00:40:19;17.80;36.20
4411;DHT22;2218;51.408;7.208;2023-11-18T00:42:45;17.90;36.20
4411;DHT22;2218;51.408;7.208;2023-11-18T00:45:14;17.80;36.20
4411;DHT22;2218;51.408;7.208;2023-11-18T00:47:41;17.80;36.20
4411;DHT22;2218;51.408;7.208;2023-11-18T00:50:08;17.80;36.20
4411;DHT22;2218;51.408;7.208;2023-11-18T00:52:35;17.80;36.20
4411;DHT22;2218;51.408;7.208;2023-11-18T00:55:05;17.80;36.20
4411;DHT22;2218;51.408;7.208;2023-11-18T00:57:33;17.80;36.30
4411;DHT22;2218;51.408;7.208;2023-11-18T01:00:00;17.80;36.20
4411;DHT22;2218;51.408;7.208;2023-11-18T01:02:28;17.80;36.20
4411;DHT22;2218;51.408;7.208;2023-11-18T01:04:56;17.80;36.20
4411;DHT22;2218;51.408;7.208;2023-11-18T01:07:22;17.80;36.20
4411;DHT22;2218;51.408;7.208;2023-11-18T01:09:49;17.80;36.20
4411;DHT22;2218;51.408;7.208;2023-11-18T01:12:16;17.70;36.10
4411;DHT22;2218;51.408;7.208;2023-11-18T01:14:43;17.80;36.20
4411;DHT22;2218;51.408;7.208;2023-11-18T01:17:10;17.70;36.20
4411;DHT22;2218;51.408;7.208;2023-11-18T01:19:40;17.80;36.20
4411;DHT22;2218;51.408;7.208;2023-11-18T01:22:07;17.70;36.10
4411;DHT22;2218;51.408;7.208;2023-11-18T01:24:34;17.70;36.10
4411;DHT22;2218;51.408;7.208;2023-11-18T01:27:01;17.70;36.10
4411;DHT22;2218;51.408;7.208;2023-11-18T01:29:29;17.70;36.10
4411;DHT22;2218;51.408;7.208;2023-11-18T01:31:56;17.70;36.10
4411;DHT22;2218;51.408;7.208;2023-11-18T01:34:23;17.70;36.10
4411;DHT22;2218;51.408;7.208;2023-11-18T01:36:52;17.70;36.10
4411;DHT22;2218;51.408;7.208;2023-11-18T01:39:19;17.70;36.10
4411;DHT22;2218;51.408;7.208;2023-11-18T01:41:46;17.70;36.10
4411;DHT22;2218;51.408;7.208;2023-11-18T01:44:14;17.70;36.00
4411;DHT22;2218;51.408;7.208;2023-11-18T01:46:41;17.70;36.10
4411;DHT22;2218;51.408;7.208;2023-11-18T01:49:10;17.70;36.10
4411;DHT22;2218;51.408;7.208;2023-11-18T01:51:40;17.70;36.10
4411;DHT22;2218;51.408;7.208;2023-11-18T01:54:09;17.60;36.00
4411;DHT22;2218;51.408;7.208;2023-11-18T01:56:41;17.70;36.10
4411;DHT22;2218;51.408;7.208;2023-11-18T01:59:08;17.70;36.10
4411;DHT22;2218;51.408;7.208;2023-11-18T02:01:44;17.60;36.00
4411;DHT22;2218;51.408;7.208;2023-11-18T02:04:15;17.60;36.00
4411;DHT22;2218;51.408;7.208;2023-11-18T02:06:45;17.60;36.00
4411;DHT22;2218;51.408;7.208;2023-11-18T02:09:15;17.60;36.00
4411;DHT22;2218;51.408;7.208;2023-11-18T02:11:49;17.60;36.00
4411;DHT22;2218;51.408;7.208;2023-11-18T02:14:25;17.60;36.00
4411;DHT22;2218;51.408;7.208;2023-11-18T02:16:56;17.60;36.00
4411;DHT22;2218;51.408;7.208;2023-11-18T02:19:29;17.60;36.10
4411;DHT22;2218;51.408;7.208;2023-11-18T02:21:58;17.60;36.00
4411;DHT22;2218;51.408;7.208;2023-11-18T02:24:30;17.60;36.00
4411;DHT22;2218;51.408;7.208;2023-11-18T02:27:04;17.60;35.90
4411;DHT22;2218;51.408;7.208;2023-11-18T02:29:34;17.70;35.90
4411;DHT22;2218;51.408;7.208;2023-11-18T02:32:09;17.80;35.80
4411;DHT22;2218;51.408;7.208;2023-11-18T02:34:49;17.80;35.60
4411;DHT22;2218;51.408;7.208;2023-11-18T02:37:21;17.80;35.40
4411;DHT22;2218;51.408;7.208;2023-11-18T02:39:53;17.90;35.30
4411;DHT22;2218;51.408;7.208;2023-11-18T02:42:31;17.90;35.20
4411;DHT22;2218;51.408;7.208;2023-11-18T02:44:58;18.00;35.20
4411;DHT22;2218;51.408;7.208;2023-11-18T02:47:26;18.00;35.10
4411;DHT22;2218;51.408;7.208;2023-11-18T02:49:54;18.00;35.10
4411;DHT22;2218;51.408;7.208;2023-11-18T02:52:28;18.00;35.10
4411;DHT22;2218;51.408;7.208;2023-11-18T02:54:55;18.10;35.10
4411;DHT22;2218;51.408;7.208;2023-11-18T02:57:23;18.10;35.10
4411;DHT22;2218;51.408;7.208;2023-11-18T02:59:51;18.10;35.10
4411;DHT22;2218;51.408;7.208;2023-11-18T03:02:18;18.10;35.00
4411;DHT22;2218;51.408;7.208;2023-11-18T03:04:46;18.10;35.00
4411;DHT22;2218;51.408;7.208;2023-11-18T03:07:13;18.10;34.90
4411;DHT22;2218;51.408;7.208;2023-11-18T03:09:40;18.10;34.90
4411;DHT22;2218;51.408;7.208;2023-11-18T03:12:07;18.10;34.90
4411;DHT22;2218;51.408;7.208;2023-11-18T03:14:38;18.20;35.00
4411;DHT22;2218;51.408;7.208;2023-11-18T03:17:06;18.10;35.00
4411;DHT22;2218;51.408;7.208;2023-11-18T03:19:35;18.10;35.10
4411;DHT22;2218;51.408;7.208;2023-11-18T03:22:03;18.10;35.20
4411;DHT22;2218;51.408;7.208;2023-11-18T03:24:30;18.10;35.70
4411;DHT22;2218;51.408;7.208;2023-11-18T03:26:58;18.10;35.20
4411;DHT22;2218;51.408;7.208;2023-11-18T03:29:25;18.10;35.20
4411;DHT22;2218;51.408;7.208;2023-11-18T03:31:52;18.10;35.20
4411;DHT22;2218;51.408;7.208;2023-11-18T03:34:20;18.10;35.10
4411;DHT22;2218;51.408;7.208;2023-11-18T03:36:48;18.10;35.10
4411;DHT22;2218;51.408;7.208;2023-11-18T03:39:17;18.10;35.10
4411;DHT22;2218;51.408;7.208;2023-11-18T03:41:43;18.10;35.10
4411;DHT22;2218;51.408;7.208;2023-11-18T03:44:12;18.20;35.10
4411;DHT22;2218;51.408;7.208;2023-11-18T03:46:39;18.10;35.10
4411;DHT22;2218;51.408;7.208;2023-11-18T03:49:07;18.10;35.00
4411;DHT22;2218;51.408;7.208;2023-11-18T03:51:36;18.10;35.00
4411;DHT22;2218;51.408;7.208;2023-11-18T03:54:03;18.10;35.00
4411;DHT22;2218;51.408;7.208;2023-11-18T03:56:34;18.10;35.00
4411;DHT22;2218;51.408;7.208;2023-11-18T03:59:01;18.10;35.00
4411;DHT22;2218;51.408;7.208;2023-11-18T04:01:29;18.10;35.00
4411;DHT22;2218;51.408;7.208;2023-11-18T04:03:58;18.10;35.00
4411;DHT22;2218;51.408;7.208;2023-11-18T04:06:25;18.10;35.00
4411;DHT22;2218;51.408;7.208;2023-11-18T04:08:53;18.10;35.00
4411;DHT22;2218;51.408;7.208;2023-11-18T04:11:20;18.10;35.00
4411;DHT22;2218;51.408;7.208;2023-11-18T04:13:47;18.10;35.00
4411;DHT22;2218;51.408;7.208;2023-11-18T04:16:15;18.10;35.00
4411;DHT22;2218;51.408;7.208;2023-11-18T04:18:43;18.10;35.50
4411;DHT22;2218;51.408;7.208;2023-11-18T04:21:12;18.10;35.00
4411;DHT22;2218;51.408;7.208;2023-11-18T04:23:42;18.10;35.00
4411;DHT22;2218;51.408;7.208;2023-11-18T04:26:13;18.10;35.00
4411;DHT22;2218;51.408;7.208;2023-11-18T04:28:40;18.10;35.00
4411;DHT22;2218;51.408;7.208;2023-11-18T04:31:07;18.10;35.00
4411;DHT22;2218;51.408;7.208;2023-11-18T04:33:34;18.10;35.00
4411;DHT22;2218;51.408;7.208;2023-11-18T04:36:01;18.10;35.00
4411;DHT22;2218;51.408;7.208;2023-11-18T04:38:31;18.10;35.00
4411;DHT22;2218;51.408;7.208;2023-11-18T04:40:58;18.10;35.00
4411;DHT22;2218;51.408;7.208;2023-11-18T04:43:27;18.10;35.00
4411;DHT22;2218;51.408;7.208;2023-11-18T04:45:54;18.10;35.00
4411;DHT22;2218;51.408;7.208;2023-11-18T04:48:22;18.10;35.00
4411;DHT22;2218;51.408;7.208;2023-11-18T04:50:49;18.10;35.00
4411;DHT22;2218;51.408;7.208;2023-11-18T04:53:16;18.10;35.00
4411;DHT22;2218;51.408;7.208;2023-11-18T04:55:43;18.10;35.00
4411;DHT22;2218;51.408;7.208;2023-11-18T04:58:10;18.10;35.00
4411;DHT22;2218;51.408;7.208;2023-11-18T05:00:38;18.10;35.00
4411;DHT22;2218;51.408;7.208;2023-11-18T05:03:07;18.10;35.00
4411;DHT22;2218;51.408;7.208;2023-11-18T05:05:35;18.10;35.00
4411;DHT22;2218;51.408;7.208;2023-11-18T05:08:04;18.10;35.00
4411;DHT22;2218;51.408;7.208;2023-11-18T05:10:31;18.10;35.00
4411;DHT22;2218;51.408;7.208;2023-11-18T05:13:00;18.10;35.00
4411;DHT22;2218;51.408;7.208;2023-11-18T05:15:27;18.10;35.00
4411;DHT22;2218;51.408;7.208;2023-11-18T05:17:56;18.10;35.00
4411;DHT22;2218;51.408;7.208;2023-11-18T05:20:23;18.20;35.10
4411;DHT22;2218;51.408;7.208;2023-11-18T05:22:50;18.10;35.00
4411;DHT22;2218;51.408;7.208;2023-11-18T05:25:17;18.10;35.00
4411;DHT22;2218;51.408;7.208;2023-11-18T05:27:44;18.10;35.00
4411;DHT22;2218;51.408;7.208;2023-11-18T05:30:12;18.10;35.00
4411;DHT22;2218;51.408;7.208;2023-11-18T05:32:39;18.10;35.10
4411;DHT22;2218;51.408;7.208;2023-11-18T05:35:08;18.10;35.00
4411;DHT22;2218;51.408;7.208;2023-11-18T05:37:37;18.10;35.00
4411;DHT22;2218;51.408;7.208;2023-11-18T05:40:07;18.10;35.00
4411;DHT22;2218;51.408;7.208;2023-11-18T05:42:37;18.10;35.10
4411;DHT22;2218;51.408;7.208;2023-11-18T05:45:07;18.10;35.10
4411;DHT22;2218;51.408;7.208;2023-11-18T05:47:43;18.10;35.10
4411;DHT22;2218;51.408;7.208;2023-11-18T05:50:11;18.10;35.10
4411;DHT22;2218;51.408;7.208;2023-11-18T05:52:40;18.10;35.10
4411;DHT22;2218;51.408;7.208;2023-11-18T05:55:08;18.10;35.10
4411;DHT22;2218;51.408;7.208;2023-11-18T05:57:35;18.10;35.10
4411;DHT22;2218;51.408;7.208;2023-11-18T06:00:03;18.10;35.10
4411;DHT22;2218;51.408;7.208;2023-11-18T06:02:38;18.10;35.10
4411;DHT22;2218;51.408;7.208;2023-11-18T06:05:05;18.10;35.10
4411;DHT22;2218;51.408;7.208;2023-11-18T06:07:34;18.10;35.10
4411;DHT22;2218;51.408;7.208;2023-11-18T06:10:01;18.10;35.20
4411;DHT22;2218;51.408;7.208;2023-11-18T06:12:31;18.10;35.10
4411;DHT22;2218;51.408;7.208;2023-11-18T06:14:58;18.10;35.10
4411;DHT22;2218;51.408;7.208;2023-11-18T06:17:25;18.10;35.10
4411;DHT22;2218;51.408;7.208;2023-11-18T06:19:53;18.10;35.20
4411;DHT22;2218;51.408;7.208;2023-11-18T06:22:20;18.10;35.20
4411;DHT22;2218;51.408;7.208;2023-11-18T06:24:48;18.10;35.20
4411;DHT22;2218;51.408;7.208;2023-11-18T06:27:17;18.10;35.20
4411;DHT22;2218;51.408;7.208;2023-11-18T06:29:49;18.10;35.20
4411;DHT22;2218;51.408;7.208;2023-11-18T06:32:20;18.10;35.20
4411;DHT22;2218;51.408;7.208;2023-11-18T06:34:47;18.10;35.20
4411;DHT22;2218;51.408;7.208;2023-11-18T06:37:15;18.10;35.20
4411;DHT22;2218;51.408;7.208;2023-11-18T06:39:42;18.10;35.20
4411;DHT22;2218;51.408;7.208;2023-11-18T06:42:14;18.10;35.20
4411;DHT22;2218;51.408;7.208;2023-11-18T06:44:41;18.10;35.30
4411;DHT22;2218;51.408;7.208;2023-11-18T06:47:08;18.10;35.30
4411;DHT22;2218;51.408;7.208;2023-11-18T06:49:38;18.10;35.30
4411;DHT22;2218;51.408;7.208;2023-11-18T06:52:06;18.10;35.30
4411;DHT22;2218;51.408;7.208;2023-11-18T06:54:37;18.10;35.30
4411;DHT22;2218;51.408;7.208;2023-11-18T06:57:04;18.10;35.30
4411;DHT22;2218;51.408;7.208;2023-11-18T06:59:34;18.10;35.30
4411;DHT22;2218;51.408;7.208;2023-11-18T07:02:01;18.10;35.40
4411;DHT22;2218;51.408;7.208;2023-11-18T07:04:30;18.10;35.40
4411;DHT22;2218;51.408;7.208;2023-11-18T07:06:56;18.10;35.40
4411;DHT22;2218;51.408;7.208;2023-11-18T07:09:23;18.10;35.40
4411;DHT22;2218;51.408;7.208;2023-11-18T07:11:51;18.10;35.40
4411;DHT22;2218;51.408;7.208;2023-11-18T07:14:18;18.10;35.40
4411;DHT22;2218;51.408;7.208;2023-11-18T07:16:46;18.10;35.40
4411;DHT22;2218;51.408;7.208;2023-11-18T07:19:14;18.10;35.40
4411;DHT22;2218;51.408;7.208;2023-11-18T07:21:45;18.10;35.40
4411;DHT22;2218;51.408;7.208;2023-11-18T07:24:12;18.10;35.40
4411;DHT22;2218;51.408;7.208;2023-11-18T07:26:39;18.10;35.40
4411;DHT22;2218;51.408;7.208;2023-11-18T07:29:06;18.10;35.50
4411;DHT22;2218;51.408;7.208;2023-11-18T07:31:34;18.10;35.50
4411;DHT22;2218;51.408;7.208;2023-11-18T07:34:04;18.10;36.00
4411;DHT22;2218;51.408;7.208;2023-11-18T07:36:31;18.10;35.50
4411;DHT22;2218;51.408;7.208;2023-11-18T07:38:58;18.10;35.50
4411;DHT22;2218;51.408;7.208;2023-11-18T07:41:26;18.10;35.50
4411;DHT22;2218;51.408;7.208;2023-11-18T07:43:54;18.10;35.50
4411;DHT22;2218;51.408;7.208;2023-11-18T07:46:21;18.10;35.50
4411;DHT22;2218;51.408;7.208;2023-11-18T07:48:48;18.10;35.60
4411;DHT22;2218;51.408;7.208;2023-11-18T07:51:19;18.10;35.60
4411;DHT22;2218;51.408;7.208;2023-11-18T07:53:47;18.10;35.60
4411;DHT22;2218;51.408;7.208;2023-11-18T07:56:14;18.10;35.60
4411;DHT22;2218;51.408;7.208;2023-11-18T07:58:42;18.10;35.60
4411;DHT22;2218;51.408;7.208;2023-11-18T08:01:11;18.10;35.60
4411;DHT22;2218;51.408;7.208;2023-11-18T08:03:38;18.10;35.60
4411;DHT22;2218;51.408;7.208;2023-11-18T08:06:07;18.10;35.60
4411;DHT22;2218;51.408;7.208;2023-11-18T08:08:35;18.10;35.60
4411;DHT22;2218;51.408;7.208;2023-11-18T08:11:04;18.10;35.70
4411;DHT22;2218;51.408;7.208;2023-11-18T08:13:31;18.10;35.70
4411;DHT22;2218;51.408;7.208;2023-11-18T08:15:58;18.10;35.70
4411;DHT22;2218;51.408;7.208;2023-11-18T08:18:25;18.10;35.70
4411;DHT22;2218;51.408;7.208;2023-11-18T08:20:53;18.10;35.70
4411;DHT22;2218;51.408;7.208;2023-11-18T08:23:20;18.10;35.70
4411;DHT22;2218;51.408;7.208;2023-11-18T08:25:49;18.10;35.70
4411;DHT22;2218;51.408;7.208;2023-11-18T08:28:16;18.10;35.80
4411;DHT22;2218;51.408;7.208;2023-11-18T08:30:43;18.10;35.80
4411;DHT22;2218;51.408;7.208;2023-11-18T08:33:10;18.10;35.80
4411;DHT22;2218;51.408;7.208;2023-11-18T08:35:37;18.20;35.90
4411;DHT22;2218;51.408;7.208;2023-11-18T08:38:05;18.10;35.80
4411;DHT22;2218;51.408;7.208;2023-11-18T08:40:33;18.10;35.80
4411;DHT22;2218;51.408;7.208;2023-11-18T08:43:03;18.10;35.80
4411;DHT22;2218;51.408;7.208;2023-11-18T08:45:33;18.10;35.90
4411;DHT22;2218;51.408;7.208;2023-11-18T08:48:01;18.10;35.90
4411;DHT22;2218;51.408;7.208;2023-11-18T08:50:34;18.10;35.90
4411;DHT22;2218;51.408;7.208;2023-11-18T08:53:01;18.10;35.90
4411;DHT22;2218;51.408;7.208;2023-11-18T08:55:31;18.10;35.90
4411;DHT22;2218;51.408;7.208;2023-11-18T08:58:18;18.20;36.10
4411;DHT22;2218;51.408;7.208;2023-11-18T09:00:53;18.10;36.00
4411;DHT22;2218;51.408;7.208;2023-11-18T09:03:30;18.10;36.00
4411;DHT22;2218;51.408;7.208;2023-11-18T09:06:03;18.10;36.00
4411;DHT22;2218;51.408;7.208;2023-11-18T09:08:33;18.10;36.00
4411;DHT22;2218;51.408;7.208;2023-11-18T09:11:02;18.10;36.00
4411;DHT22;2218;51.408;7.208;2023-11-18T09:13:33;18.10;36.10
4411;DHT22;2218;51.408;7.208;2023-11-18T09:16:02;18.10;36.10
4411;DHT22;2218;51.408;7.208;2023-11-18T09:18:34;18.10;36.10
4411;DHT22;2218;51.408;7.208;2023-11-18T09:21:02;18.10;36.10
4411;DHT22;2218;51.408;7.208;2023-11-18T09:23:31;18.10;36.10
4411;DHT22;2218;51.408;7.208;2023-11-18T09:26:00;18.20;36.20
4411;DHT22;2218;51.408;7.208;2023-11-18T09:28:28;18.10;36.10
4411;DHT22;2218;51.408;7.208;2023-11-18T09:30:56;18.20;36.30
4411;DHT22;2218;51.408;7.208;2023-11-18T09:33:25;18.10;36.20
4411;DHT22;2218;51.408;7.208;2023-11-18T09:35:52;18.10;36.20
4411;DHT22;2218;51.408;7.208;2023-11-18T09:38:24;18.10;36.20
4411;DHT22;2218;51.408;7.208;2023-11-18T09:40:54;18.10;36.20
4411;DHT22;2218;51.408;7.208;2023-11-18T09:43:24;18.10;36.20
4411;DHT22;2218;51.408;7.208;2023-11-18T09:45:56;18.10;36.30
4411;DHT22;2218;51.408;7.208;2023-11-18T09:48:27;18.10;36.30
4411;DHT22;2218;51.408;7.208;2023-11-18T09:50:57;18.10;36.30
4411;DHT22;2218;51.408;7.208;2023-11-18T09:53:29;18.10;36.40
4411;DHT22;2218;51.408;7.208;2023-11-18T09:56:07;18.20;36.40
4411;DHT22;2218;51.408;7.208;2023-11-18T09:58:48;18.20;36.50
4411;DHT22;2218;51.408;7.208;2023-11-18T10:01:27;18.10;36.40
4411;DHT22;2218;51.408;7.208;2023-11-18T10:03:58;18.10;36.50
4411;DHT22;2218;51.408;7.208;2023-11-18T10:06:33;18.10;36.50
4411;DHT22;2218;51.408;7.208;2023-11-18T10:09:02;18.10;36.50
4411;DHT22;2218;51.408;7.208;2023-11-18T10:11:41;18.10;36.50
4411;DHT22;2218;51.408;7.208;2023-11-18T10:14:12;18.10;36.50
4411;DHT22;2218;51.408;7.208;2023-11-18T10:16:43;18.20;36.60
4411;DHT22;2218;51.408;7.208;2023-11-18T10:19:13;18.10;36.60
4411;DHT22;2218;51.408;7.208;2023-11-18T10:21:43;18.10;36.60
4411;DHT22;2218;51.408;7.208;2023-11-18T10:24:14;18.20;36.70
4411;DHT22;2218;51.408;7.208;2023-11-18T10:26:46;18.10;36.60
4411;DHT22;2218;51.408;7.208;2023-11-18T10:29:23;18.10;36.70
4411;DHT22;2218;51.408;7.208;2023-11-18T10:32:04;18.10;36.60
4411;DHT22;2218;51.408;7.208;2023-11-18T10:34:35;18.10;36.70
4411;DHT22;2218;51.408;7.208;2023-11-18T10:37:02;18.10;36.70
4411;DHT22;2218;51.408;7.208;2023-11-18T10:39:32;18.10;36.70
4411;DHT22;2218;51.408;7.208;2023-11-18T10:42:01;18.20;36.80
4411;DHT22;2218;51.408;7.208;2023-11-18T10:44:28;18.20;36.90
4411;DHT22;2218;51.408;7.208;2023-11-18T10:46:56;18.10;36.80
4411;DHT22;2218;51.408;7.208;2023-11-18T10:49:26;18.10;36.80
4411;DHT22;2218;51.408;7.208;2023-11-18T10:51:55;18.20;36.90
4411;DHT22;2218;51.408;7.208;2023-11-18T10:54:23;18.20;37.00
4411;DHT22;2218;51.408;7.208;2023-11-18T10:56:52;18.20;36.90
4411;DHT22;2218;51.408;7.208;2023-11-18T10:59:22;18.10;36.90
4411;DHT22;2218;51.408;7.208;2023-11-18T11:01:50;18.10;37.00
4411;DHT22;2218;51.408;7.208;2023-11-18T11:04:18;18.10;37.00
4411;DHT22;2218;51.408;7.208;2023-11-18T11:06:48;18.10;37.00
4411;DHT22;2218;51.408;7.208;2023-11-18T11:09:22;18.10;37.00
4411;DHT22;2218;51.408;7.208;2023-11-18T11:11:54;18.10;37.10
4411;DHT22;2218;51.408;7.208;2023-11-18T11:14:26;18.10;37.10
4411;DHT22;2218;51.408;7.208;2023-11-18T11:17:06;18.10;37.10
4411;DHT22;2218;51.408;7.208;2023-11-18T11:19:45;18.20;37.20
4411;DHT22;2218;51.408;7.208;2023-11-18T11:22:28;18.10;37.20
4411;DHT22;2218;51.408;7.208;2023-11-18T11:25:13;18.10;37.20
4411;DHT22;2218;51.408;7.208;2023-11-18T11:27:55;18.20;37.30
4411;DHT22;2218;51.408;7.208;2023-11-18T11:30:42;18.10;37.20
4411;DHT22;2218;51.408;7.208;2023-11-18T11:33:17;18.20;37.40
4411;DHT22;2218;51.408;7.208;2023-11-18T11:35:55;18.10;37.30
4411;DHT22;2218;51.408;7.208;2023-11-18T11:38:25;18.10;37.30
4411;DHT22;2218;51.408;7.208;2023-11-18T11:40:54;18.20;37.50
4411;DHT22;2218;51.408;7.208;2023-11-18T11:43:23;18.10;37.30
4411;DHT22;2218;51.408;7.208;2023-11-18T11:45:54;18.10;37.40
4411;DHT22;2218;51.408;7.208;2023-11-18T11:48:22;18.10;37.40
4411;DHT22;2218;51.408;7.208;2023-11-18T11:51:13;18.10;37.40
4411;DHT22;2218;51.408;7.208;2023-11-18T11:53:53;18.20;37.60
4411;DHT22;2218;51.408;7.208;2023-11-18T11:56:38;18.20;37.60
4411;DHT22;2218;51.408;7.208;2023-11-18T11:59:06;18.20;37.60
4411;DHT22;2218;51.408;7.208;2023-11-18T12:01:37;18.20;37.60
4411;DHT22;2218;51.408;7.208;2023-11-18T12:04:08;18.20;37.70
4411;DHT22;2218;51.408;7.208;2023-11-18T12:06:47;18.20;37.70
4411;DHT22;2218;51.408;7.208;2023-11-18T12:09:20;18.20;37.70
4411;DHT22;2218;51.408;7.208;2023-11-18T12:11:47;18.20;37.80
4411;DHT22;2218;51.408;7.208;2023-11-18T12:14:16;18.20;37.70
4411;DHT22;2218;51.408;7.208;2023-11-18T12:17:04;18.20;37.80
4411;DHT22;2218;51.408;7.208;2023-11-18T12:19:36;18.20;37.80
4411;DHT22;2218;51.408;7.208;2023-11-18T12:22:12;18.20;37.90
4411;DHT22;2218;51.408;7.208;2023-11-18T12:28:14;18.20;38.00
4411;DHT22;2218;51.408;7.208;2023-11-18T12:30:44;18.20;38.00
4411;DHT22;2218;51.408;7.208;2023-11-18T12:34:00;18.20;38.00
4411;DHT22;2218;51.408;7.208;2023-11-18T12:37:12;18.20;38.10
4411;DHT22;2218;51.408;7.208;2023-11-18T12:43:31;18.20;38.20
4411;DHT22;2218;51.408;7.208;2023-11-18T12:46:48;18.20;38.20
4411;DHT22;2218;51.408;7.208;2023-11-18T12:49:23;18.20;38.20
4411;DHT22;2218;51.408;7.208;2023-11-18T12:51:51;18.20;38.30
4411;DHT22;2218;51.408;7.208;2023-11-18T12:54:21;18.20;38.40
4411;DHT22;2218;51.408;7.208;2023-11-18T12:56:54;18.20;38.40
4411;DHT22;2218;51.408;7.208;2023-11-18T12:59:21;18.20;38.40
4411;DHT22;2218;51.408;7.208;2023-11-18T13:01:49;18.20;38.50
4411;DHT22;2218;51.408;7.208;2023-11-18T13:04:19;18.20;38.50
4411;DHT22;2218;51.408;7.208;2023-11-18T13:06:46;18.20;38.50
4411;DHT22;2218;51.408;7.208;2023-11-18T13:09:17;18.20;38.60
4411;DHT22;2218;51.408;7.208;2023-11-18T13:11:55;18.20;38.60
4411;DHT22;2218;51.408;7.208;2023-11-18T13:14:23;18.20;38.60
4411;DHT22;2218;51.408;7.208;2023-11-18T13:16:54;18.20;38.70
4411;DHT22;2218;51.408;7.208;2023-11-18T13:19:25;18.20;38.70
4411;DHT22;2218;51.408;7.208;2023-11-18T13:21:56;18.20;38.80
4411;DHT22;2218;51.408;7.208;2023-11-18T13:24:25;18.20;38.80
4411;DHT22;2218;51.408;7.208;2023-11-18T13:26:55;18.20;38.80
4411;DHT22;2218;51.408;7.208;2023-11-18T13:29:23;18.20;38.80
4411;DHT22;2218;51.408;7.208;2023-11-18T13:31:51;18.20;38.90
4411;DHT22;2218;51.408;7.208;2023-11-18T13:34:19;18.10;38.80
4411;DHT22;2218;51.408;7.208;2023-11-18T13:36:47;18.20;38.90
4411;DHT22;2218;51.408;7.208;2023-11-18T13:39:17;18.10;38.90
4411;DHT22;2218;51.408;7.208;2023-11-18T13:41:45;18.10;38.90
4411;DHT22;2218;51.408;7.208;2023-11-18T13:44:32;18.10;39.00
4411;DHT22;2218;51.408;7.208;2023-11-18T13:47:01;18.20;39.10
4411;DHT22;2218;51.408;7.208;2023-11-18T13:49:31;18.10;39.00
4411;DHT22;2218;51.408;7.208;2023-11-18T13:51:59;18.20;39.10
4411;DHT22;2218;51.408;7.208;2023-11-18T13:54:27;18.20;39.20
4411;DHT22;2218;51.408;7.208;2023-11-18T13:56:55;18.10;39.10
4411;DHT22;2218;51.408;7.208;2023-11-18T13:59:24;18.20;39.20
4411;DHT22;2218;51.408;7.208;2023-11-18T14:01:53;18.20;39.20
4411;DHT22;2218;51.408;7.208;2023-11-18T14:04:23;18.10;39.20
4411;DHT22;2218;51.408;7.208;2023-11-18T14:06:53;18.20;39.30
4411;DHT22;2218;51.408;7.208;2023-11-18T14:09:23;18.10;39.20
4411;DHT22;2218;51.408;7.208;2023-11-18T14:11:52;18.10;39.20
4411;DHT22;2218;51.408;7.208;2023-11-18T14:14:21;18.10;39.20
4411;DHT22;2218;51.408;7.208;2023-11-18T14:16:48;18.20;39.30
4411;DHT22;2218;51.408;7.208;2023-11-18T14:19:18;18.10;39.30
4411;DHT22;2218;51.408;7.208;2023-11-18T14:21:45;18.20;39.40
4411;DHT22;2218;51.408;7.208;2023-11-18T14:24:12;18.10;39.30
4411;DHT22;2218;51.408;7.208;2023-11-18T14:26:39;18.10;39.30
4411;DHT22;2218;51.408;7.208;2023-11-18T14:29:07;18.10;39.30
4411;DHT22;2218;51.408;7.208;2023-11-18T14:31:34;18.10;39.30
4411;DHT22;2218;51.408;7.208;2023-11-18T14:34:01;18.10;39.30
4411;DHT22;2218;51.408;7.208;2023-11-18T14:36:30;18.10;39.40
4411;DHT22;2218;51.408;7.208;2023-11-18T14:38:58;18.10;39.40
4411;DHT22;2218;51.408;7.208;2023-11-18T14:41:25;18.10;39.40
4411;DHT22;2218;51.408;7.208;2023-11-18T14:43:52;18.20;39.50
4411;DHT22;2218;51.408;7.208;2023-11-18T14:46:19;18.10;39.40
4411;DHT22;2218;51.408;7.208;2023-11-18T14:48:46;18.10;39.40
4411;DHT22;2218;51.408;7.208;2023-11-18T14:51:14;18.10;39.40
4411;DHT22;2218;51.408;7.208;2023-11-18T14:53:42;18.10;39.40
4411;DHT22;2218;51.408;7.208;2023-11-18T14:56:10;18.10;39.40
4411;DHT22;2218;51.408;7.208;2023-11-18T14:58:37;18.10;39.50
4411;DHT22;2218;51.408;7.208;2023-11-18T15:01:04;18.10;39.50
4411;DHT22;2218;51.408;7.208;2023-11-18T15:03:36;18.10;39.40
4411;DHT22;2218;51.408;7.208;2023-11-18T15:06:03;18.10;39.50
4411;DHT22;2218;51.408;7.208;2023-11-18T15:08:31;18.10;39.50
4411;DHT22;2218;51.408;7.208;2023-11-18T15:11:00;18.10;39.50
4411;DHT22;2218;51.408;7.208;2023-11-18T15:13:28;18.20;39.60
4411;DHT22;2218;51.408;7.208;2023-11-18T15:15:55;18.20;40.10
4411;DHT22;2218;51.408;7.208;2023-11-18T15:18:22;18.10;39.50
4411;DHT22;2218;51.408;7.208;2023-11-18T15:20:49;18.10;39.50
4411;DHT22;2218;51.408;7.208;2023-11-18T15:23:18;18.10;39.50
4411;DHT22;2218;51.408;7.208;2023-11-18T15:25:47;18.10;39.50
4411;DHT22;2218;51.408;7.208;2023-11-18T15:28:16;18.10;39.50
4411;DHT22;2218;51.408;7.208;2023-11-18T15:30:44;18.10;39.60
4411;DHT22;2218;51.408;7.208;2023-11-18T15:33:12;18.10;39.60
4411;DHT22;2218;51.408;7.208;2023-11-18T15:35:40;18.10;39.60
4411;DHT22;2218;51.408;7.208;2023-11-18T15:38:07;18.10;39.60
4411;DHT22;2218;51.408;7.208;2023-11-18T15:40:35;18.10;39.70
4411;DHT22;2218;51.408;7.208;2023-11-18T15:43:03;18.10;39.70
4411;DHT22;2218;51.408;7.208;2023-11-18T15:45:33;18.10;39.70
4411;DHT22;2218;51.408;7.208;2023-11-18T15:48:01;18.10;39.70
4411;DHT22;2218;51.408;7.208;2023-11-18T15:50:31;18.10;39.70
4411;DHT22;2218;51.408;7.208;2023-11-18T15:53:03;18.10;39.70
4411;DHT22;2218;51.408;7.208;2023-11-18T15:55:31;18.10;39.80
4411;DHT22;2218;51.408;7.208;2023-11-18T15:57:58;18.10;39.80
4411;DHT22;2218;51.408;7.208;2023-11-18T16:00:26;18.10;39.80
4411;DHT22;2218;51.408;7.208;2023-11-18T16:02:57;18.10;39.90
4411;DHT22;2218;51.408;7.208;2023-11-18T16:05:26;18.10;39.80
4411;DHT22;2218;51.408;7.208;2023-11-18T16:07:54;18.10;39.80
4411;DHT22;2218;51.408;7.208;2023-11-18T16:10:22;18.10;39.90
4411;DHT22;2218;51.408;7.208;2023-11-18T16:12:51;18.10;39.90
4411;DHT22;2218;51.408;7.208;2023-11-18T16:15:20;18.10;40.00
4411;DHT22;2218;51.408;7.208;2023-11-18T16:17:48;18.10;40.00
4411;DHT22;2218;51.408;7.208;2023-11-18T16:20:18;18.10;40.00
4411;DHT22;2218;51.408;7.208;2023-11-18T16:22:48;18.10;40.00
4411;DHT22;2218;51.408;7.208;2023-11-18T16:25:17;18.10;40.10